sensor_id;sensor_type;location;lat;lon;timestamp;P1;durP1;ratioP1;P2;durP2;ratioP2
32347;SDS011;18821;44.800;10.326;2022-10-22T00:00:26;196.30;;;76.97;;
32347;SDS011;18821;44.800;10.326;2022-10-22T00:02:55;186.98;;;70.63;;
32347;SDS011;18821;44.800;10.326;2022-10-22T00:05:21;196.57;;;76.32;;
32347;SDS011;18821;44.800;10.326;2022-10-22T00:07:47;197.18;;;75.90;;
32347;SDS011;18821;44.800;10.326;2022-10-22T00:10:13;178.05;;;73.65;;
32347;SDS011;18821;44.800;10.326;2022-10-22T00:12:41;184.52;;;71.57;;
32347;SDS011;18821;44.800;10.326;2022-10-22T00:15:07;169.35;;;69.65;;
32347;SDS011;18821;44.800;10.326;2022-10-22T00:17:35;165.15;;;68.70;;
32347;SDS011;18821;44.800;10.326;2022-10-22T00:20:01;165.48;;;68.03;;
32347;SDS011;18821;44.800;10.326;2022-10-22T00:22:28;152.82;;;63.80;;
32347;SDS011;18821;44.800;10.326;2022-10-22T00:24:53;152.60;;;66.28;;
32347;SDS011;18821;44.800;10.326;2022-10-22T00:27:19;156.65;;;66.85;;
32347;SDS011;18821;44.800;10.326;2022-10-22T00:29:46;166.35;;;66.60;;
32347;SDS011;18821;44.800;10.326;2022-10-22T00:32:12;154.18;;;65.93;;
32347;SDS011;18821;44.800;10.326;2022-10-22T00:34:39;148.98;;;64.82;;
32347;SDS011;18821;44.800;10.326;2022-10-22T00:37:05;151.00;;;64.88;;
32347;SDS011;18821;44.800;10.326;2022-10-22T00:39:31;121.35;;;58.17;;
32347;SDS011;18821;44.800;10.326;2022-10-22T00:41:57;126.65;;;60.95;;
32347;SDS011;18821;44.800;10.326;2022-10-22T00:47:35;114.07;;;56.72;;
32347;SDS011;18821;44.800;10.326;2022-10-22T00:50:05;115.55;;;53.17;;
32347;SDS011;18821;44.800;10.326;2022-10-22T00:52:40;115.90;;;54.08;;
32347;SDS011;18821;44.800;10.326;2022-10-22T00:55:06;106.95;;;53.08;;
32347;SDS011;18821;44.800;10.326;2022-10-22T00:57:34;112.53;;;51.63;;
32347;SDS011;18821;44.800;10.326;2022-10-22T01:00:01;113.85;;;52.35;;
32347;SDS011;18821;44.800;10.326;2022-10-22T01:02:28;106.30;;;51.42;;
32347;SDS011;18821;44.800;10.326;2022-10-22T01:04:53;96.32;;;48.33;;
32347;SDS011;18821;44.800;10.326;2022-10-22T01:07:20;100.18;;;49.50;;
32347;SDS011;18821;44.800;10.326;2022-10-22T01:14:43;90.72;;;48.88;;
32347;SDS011;18821;44.800;10.326;2022-10-22T01:17:22;90.18;;;46.13;;
32347;SDS011;18821;44.800;10.326;2022-10-22T01:25:53;94.05;;;46.50;;
32347;SDS011;18821;44.800;10.326;2022-10-22T01:28:48;82.93;;;44.03;;
32347;SDS011;18821;44.800;10.326;2022-10-22T01:31:31;96.18;;;46.90;;
32347;SDS011;18821;44.800;10.326;2022-10-22T01:34:03;83.10;;;45.50;;
32347;SDS011;18821;44.800;10.326;2022-10-22T01:36:32;80.90;;;44.50;;
32347;SDS011;18821;44.800;10.326;2022-10-22T01:39:01;79.57;;;43.80;;
32347;SDS011;18821;44.800;10.326;2022-10-22T01:41:32;79.53;;;42.53;;
32347;SDS011;18821;44.800;10.326;2022-10-22T01:43:59;74.40;;;42.55;;
32347;SDS011;18821;44.800;10.326;2022-10-22T01:46:26;80.63;;;41.90;;
32347;SDS011;18821;44.800;10.326;2022-10-22T01:49:04;79.85;;;42.22;;
32347;SDS011;18821;44.800;10.326;2022-10-22T01:54:44;80.80;;;42.00;;
32347;SDS011;18821;44.800;10.326;2022-10-22T02:05:12;70.35;;;41.08;;
32347;SDS011;18821;44.800;10.326;2022-10-22T02:07:49;75.88;;;41.05;;
32347;SDS011;18821;44.800;10.326;2022-10-22T02:10:23;72.07;;;39.83;;
32347;SDS011;18821;44.800;10.326;2022-10-22T02:12:51;69.10;;;40.53;;
32347;SDS011;18821;44.800;10.326;2022-10-22T02:15:19;72.18;;;40.20;;
32347;SDS011;18821;44.800;10.326;2022-10-22T02:17:47;71.57;;;39.28;;
32347;SDS011;18821;44.800;10.326;2022-10-22T02:20:16;68.10;;;38.63;;
32347;SDS011;18821;44.800;10.326;2022-10-22T02:22:51;78.32;;;41.13;;
32347;SDS011;18821;44.800;10.326;2022-10-22T02:25:17;68.13;;;39.53;;
32347;SDS011;18821;44.800;10.326;2022-10-22T02:27:48;66.90;;;39.20;;
32347;SDS011;18821;44.800;10.326;2022-10-22T02:30:19;74.05;;;39.42;;
32347;SDS011;18821;44.800;10.326;2022-10-22T02:35:21;73.22;;;39.13;;
32347;SDS011;18821;44.800;10.326;2022-10-22T02:37:50;70.72;;;37.47;;
32347;SDS011;18821;44.800;10.326;2022-10-22T02:40:19;65.93;;;41.25;;
32347;SDS011;18821;44.800;10.326;2022-10-22T02:42:46;64.45;;;35.90;;
32347;SDS011;18821;44.800;10.326;2022-10-22T02:45:14;65.80;;;37.63;;
32347;SDS011;18821;44.800;10.326;2022-10-22T02:47:41;66.88;;;38.97;;
32347;SDS011;18821;44.800;10.326;2022-10-22T02:50:07;77.75;;;39.15;;
32347;SDS011;18821;44.800;10.326;2022-10-22T02:52:34;70.25;;;38.78;;
32347;SDS011;18821;44.800;10.326;2022-10-22T02:55:00;71.03;;;38.65;;
32347;SDS011;18821;44.800;10.326;2022-10-22T02:57:26;66.40;;;38.72;;
32347;SDS011;18821;44.800;10.326;2022-10-22T02:59:52;67.13;;;39.33;;
32347;SDS011;18821;44.800;10.326;2022-10-22T03:02:18;65.28;;;37.35;;
32347;SDS011;18821;44.800;10.326;2022-10-22T03:04:44;70.40;;;38.33;;
32347;SDS011;18821;44.800;10.326;2022-10-22T03:07:10;62.22;;;36.80;;
32347;SDS011;18821;44.800;10.326;2022-10-22T03:09:36;70.28;;;39.67;;
32347;SDS011;18821;44.800;10.326;2022-10-22T03:12:02;74.05;;;38.42;;
32347;SDS011;18821;44.800;10.326;2022-10-22T03:14:28;65.78;;;38.88;;
32347;SDS011;18821;44.800;10.326;2022-10-22T03:16:54;68.55;;;38.05;;
32347;SDS011;18821;44.800;10.326;2022-10-22T03:19:19;65.43;;;38.25;;
32347;SDS011;18821;44.800;10.326;2022-10-22T03:21:50;64.20;;;37.33;;
32347;SDS011;18821;44.800;10.326;2022-10-22T03:24:21;60.40;;;36.42;;
32347;SDS011;18821;44.800;10.326;2022-10-22T03:26:50;65.38;;;36.70;;
32347;SDS011;18821;44.800;10.326;2022-10-22T03:29:17;62.20;;;37.40;;
32347;SDS011;18821;44.800;10.326;2022-10-22T03:31:45;67.05;;;38.00;;
32347;SDS011;18821;44.800;10.326;2022-10-22T03:34:11;61.88;;;37.03;;
32347;SDS011;18821;44.800;10.326;2022-10-22T03:36:38;59.10;;;36.45;;
32347;SDS011;18821;44.800;10.326;2022-10-22T03:39:05;59.00;;;34.15;;
32347;SDS011;18821;44.800;10.326;2022-10-22T03:41:31;62.15;;;36.38;;
32347;SDS011;18821;44.800;10.326;2022-10-22T03:43:59;60.33;;;35.63;;
32347;SDS011;18821;44.800;10.326;2022-10-22T03:46:26;55.60;;;33.45;;
32347;SDS011;18821;44.800;10.326;2022-10-22T03:48:52;62.88;;;36.17;;
32347;SDS011;18821;44.800;10.326;2022-10-22T03:51:18;65.47;;;35.40;;
32347;SDS011;18821;44.800;10.326;2022-10-22T03:53:44;60.47;;;37.05;;
32347;SDS011;18821;44.800;10.326;2022-10-22T03:56:10;61.25;;;37.20;;
32347;SDS011;18821;44.800;10.326;2022-10-22T03:58:37;58.05;;;35.30;;
32347;SDS011;18821;44.800;10.326;2022-10-22T04:01:08;60.17;;;35.58;;
32347;SDS011;18821;44.800;10.326;2022-10-22T04:03:36;66.53;;;35.97;;
32347;SDS011;18821;44.800;10.326;2022-10-22T04:06:03;58.70;;;35.42;;
32347;SDS011;18821;44.800;10.326;2022-10-22T04:08:30;60.97;;;35.40;;
32347;SDS011;18821;44.800;10.326;2022-10-22T04:10:56;64.50;;;36.40;;
32347;SDS011;18821;44.800;10.326;2022-10-22T04:13:22;61.10;;;37.50;;
32347;SDS011;18821;44.800;10.326;2022-10-22T04:15:48;68.50;;;36.85;;
32347;SDS011;18821;44.800;10.326;2022-10-22T04:18:16;60.65;;;36.45;;
32347;SDS011;18821;44.800;10.326;2022-10-22T04:20:47;67.22;;;35.58;;
32347;SDS011;18821;44.800;10.326;2022-10-22T04:23:13;61.05;;;35.38;;
32347;SDS011;18821;44.800;10.326;2022-10-22T04:25:39;60.80;;;37.00;;
32347;SDS011;18821;44.800;10.326;2022-10-22T04:28:06;63.15;;;35.83;;
32347;SDS011;18821;44.800;10.326;2022-10-22T04:30:33;60.53;;;35.97;;
32347;SDS011;18821;44.800;10.326;2022-10-22T04:32:59;61.38;;;34.35;;
32347;SDS011;18821;44.800;10.326;2022-10-22T04:35:25;68.93;;;36.40;;
32347;SDS011;18821;44.800;10.326;2022-10-22T04:37:51;63.33;;;36.88;;
32347;SDS011;18821;44.800;10.326;2022-10-22T04:40:17;59.42;;;36.17;;
32347;SDS011;18821;44.800;10.326;2022-10-22T04:42:42;70.82;;;36.45;;
32347;SDS011;18821;44.800;10.326;2022-10-22T04:45:08;63.28;;;36.47;;
32347;SDS011;18821;44.800;10.326;2022-10-22T04:47:35;58.33;;;34.28;;
32347;SDS011;18821;44.800;10.326;2022-10-22T04:50:00;60.65;;;35.33;;
32347;SDS011;18821;44.800;10.326;2022-10-22T04:52:26;64.00;;;35.72;;
32347;SDS011;18821;44.800;10.326;2022-10-22T04:54:52;61.35;;;37.17;;
32347;SDS011;18821;44.800;10.326;2022-10-22T04:57:18;57.58;;;34.50;;
32347;SDS011;18821;44.800;10.326;2022-10-22T04:59:44;59.97;;;36.85;;
32347;SDS011;18821;44.800;10.326;2022-10-22T05:02:10;62.22;;;36.08;;
32347;SDS011;18821;44.800;10.326;2022-10-22T05:04:36;66.60;;;38.13;;
32347;SDS011;18821;44.800;10.326;2022-10-22T05:07:01;67.00;;;36.42;;
32347;SDS011;18821;44.800;10.326;2022-10-22T05:09:27;66.53;;;35.67;;
32347;SDS011;18821;44.800;10.326;2022-10-22T05:11:53;64.05;;;35.58;;
32347;SDS011;18821;44.800;10.326;2022-10-22T05:14:23;60.08;;;36.80;;
32347;SDS011;18821;44.800;10.326;2022-10-22T05:16:49;65.15;;;36.97;;
32347;SDS011;18821;44.800;10.326;2022-10-22T05:19:17;60.35;;;35.92;;
32347;SDS011;18821;44.800;10.326;2022-10-22T05:21:48;61.30;;;36.03;;
32347;SDS011;18821;44.800;10.326;2022-10-22T05:24:15;62.78;;;36.30;;
32347;SDS011;18821;44.800;10.326;2022-10-22T05:26:41;60.35;;;33.85;;
32347;SDS011;18821;44.800;10.326;2022-10-22T05:29:07;58.35;;;35.47;;
32347;SDS011;18821;44.800;10.326;2022-10-22T05:31:32;54.72;;;35.15;;
32347;SDS011;18821;44.800;10.326;2022-10-22T05:33:59;62.92;;;36.65;;
32347;SDS011;18821;44.800;10.326;2022-10-22T05:36:25;67.18;;;37.40;;
32347;SDS011;18821;44.800;10.326;2022-10-22T05:38:52;61.47;;;35.95;;
32347;SDS011;18821;44.800;10.326;2022-10-22T05:41:19;58.90;;;34.20;;
32347;SDS011;18821;44.800;10.326;2022-10-22T05:43:47;60.50;;;33.35;;
32347;SDS011;18821;44.800;10.326;2022-10-22T05:46:14;60.65;;;35.42;;
32347;SDS011;18821;44.800;10.326;2022-10-22T05:48:41;62.10;;;35.83;;
32347;SDS011;18821;44.800;10.326;2022-10-22T05:51:09;63.28;;;37.60;;
32347;SDS011;18821;44.800;10.326;2022-10-22T05:53:38;69.20;;;36.40;;
32347;SDS011;18821;44.800;10.326;2022-10-22T05:56:06;67.57;;;36.20;;
32347;SDS011;18821;44.800;10.326;2022-10-22T05:58:37;60.72;;;36.13;;
32347;SDS011;18821;44.800;10.326;2022-10-22T06:01:04;55.97;;;35.47;;
32347;SDS011;18821;44.800;10.326;2022-10-22T06:03:38;63.03;;;34.83;;
32347;SDS011;18821;44.800;10.326;2022-10-22T06:06:38;60.20;;;35.55;;
32347;SDS011;18821;44.800;10.326;2022-10-22T06:08:59;64.05;;;36.80;;
32347;SDS011;18821;44.800;10.326;2022-10-22T06:11:28;55.80;;;34.28;;
32347;SDS011;18821;44.800;10.326;2022-10-22T06:13:54;62.30;;;34.30;;
32347;SDS011;18821;44.800;10.326;2022-10-22T06:16:20;60.33;;;34.45;;
32347;SDS011;18821;44.800;10.326;2022-10-22T06:18:46;57.30;;;34.05;;
32347;SDS011;18821;44.800;10.326;2022-10-22T06:21:13;53.80;;;33.38;;
32347;SDS011;18821;44.800;10.326;2022-10-22T06:23:39;60.05;;;34.33;;
32347;SDS011;18821;44.800;10.326;2022-10-22T06:26:06;59.35;;;32.92;;
32347;SDS011;18821;44.800;10.326;2022-10-22T06:28:33;57.85;;;33.65;;
32347;SDS011;18821;44.800;10.326;2022-10-22T06:31:00;58.72;;;33.70;;
32347;SDS011;18821;44.800;10.326;2022-10-22T06:33:27;57.25;;;33.28;;
32347;SDS011;18821;44.800;10.326;2022-10-22T06:35:54;49.20;;;29.45;;
32347;SDS011;18821;44.800;10.326;2022-10-22T06:38:20;51.28;;;30.92;;
32347;SDS011;18821;44.800;10.326;2022-10-22T06:40:46;50.88;;;32.45;;
32347;SDS011;18821;44.800;10.326;2022-10-22T06:43:12;56.55;;;30.48;;
32347;SDS011;18821;44.800;10.326;2022-10-22T06:45:39;53.80;;;31.98;;
32347;SDS011;18821;44.800;10.326;2022-10-22T06:48:05;50.50;;;31.48;;
32347;SDS011;18821;44.800;10.326;2022-10-22T06:50:32;52.83;;;30.08;;
32347;SDS011;18821;44.800;10.326;2022-10-22T06:52:59;45.92;;;29.88;;
32347;SDS011;18821;44.800;10.326;2022-10-22T06:55:25;51.75;;;28.67;;
32347;SDS011;18821;44.800;10.326;2022-10-22T06:57:50;57.20;;;30.20;;
32347;SDS011;18821;44.800;10.326;2022-10-22T07:00:16;49.95;;;30.13;;
32347;SDS011;18821;44.800;10.326;2022-10-22T07:02:42;49.15;;;29.15;;
32347;SDS011;18821;44.800;10.326;2022-10-22T07:05:08;47.88;;;27.95;;
32347;SDS011;18821;44.800;10.326;2022-10-22T07:07:34;49.42;;;27.55;;
32347;SDS011;18821;44.800;10.326;2022-10-22T07:10:00;45.42;;;25.30;;
32347;SDS011;18821;44.800;10.326;2022-10-22T07:12:26;41.85;;;25.75;;
32347;SDS011;18821;44.800;10.326;2022-10-22T07:14:52;40.17;;;26.20;;
32347;SDS011;18821;44.800;10.326;2022-10-22T07:17:18;45.15;;;26.95;;
32347;SDS011;18821;44.800;10.326;2022-10-22T07:19:43;43.05;;;26.63;;
32347;SDS011;18821;44.800;10.326;2022-10-22T07:22:09;38.85;;;25.52;;
32347;SDS011;18821;44.800;10.326;2022-10-22T07:24:35;43.20;;;25.20;;
32347;SDS011;18821;44.800;10.326;2022-10-22T07:27:01;48.92;;;25.83;;
32347;SDS011;18821;44.800;10.326;2022-10-22T07:29:27;38.47;;;23.63;;
32347;SDS011;18821;44.800;10.326;2022-10-22T07:31:53;42.50;;;23.80;;
32347;SDS011;18821;44.800;10.326;2022-10-22T07:34:21;41.03;;;24.38;;
32347;SDS011;18821;44.800;10.326;2022-10-22T07:36:47;39.92;;;23.73;;
32347;SDS011;18821;44.800;10.326;2022-10-22T07:39:13;37.35;;;23.33;;
32347;SDS011;18821;44.800;10.326;2022-10-22T07:41:39;32.13;;;21.05;;
32347;SDS011;18821;44.800;10.326;2022-10-22T07:44:05;33.95;;;18.35;;
32347;SDS011;18821;44.800;10.326;2022-10-22T07:46:30;27.23;;;16.33;;
32347;SDS011;18821;44.800;10.326;2022-10-22T07:48:56;33.88;;;19.20;;
32347;SDS011;18821;44.800;10.326;2022-10-22T07:51:22;30.88;;;19.70;;
32347;SDS011;18821;44.800;10.326;2022-10-22T07:53:48;33.85;;;20.38;;
32347;SDS011;18821;44.800;10.326;2022-10-22T07:56:14;47.17;;;24.48;;
32347;SDS011;18821;44.800;10.326;2022-10-22T07:58:40;39.85;;;25.75;;
32347;SDS011;18821;44.800;10.326;2022-10-22T08:01:07;42.40;;;24.60;;
32347;SDS011;18821;44.800;10.326;2022-10-22T08:03:33;47.03;;;26.98;;
32347;SDS011;18821;44.800;10.326;2022-10-22T08:05:59;50.25;;;29.88;;
32347;SDS011;18821;44.800;10.326;2022-10-22T08:08:26;49.95;;;30.38;;
32347;SDS011;18821;44.800;10.326;2022-10-22T08:10:54;50.35;;;31.10;;
32347;SDS011;18821;44.800;10.326;2022-10-22T08:13:21;49.03;;;30.15;;
32347;SDS011;18821;44.800;10.326;2022-10-22T08:15:48;47.38;;;26.90;;
32347;SDS011;18821;44.800;10.326;2022-10-22T08:18:14;54.65;;;29.83;;
32347;SDS011;18821;44.800;10.326;2022-10-22T08:20:40;51.95;;;30.00;;
32347;SDS011;18821;44.800;10.326;2022-10-22T08:23:06;51.22;;;29.13;;
32347;SDS011;18821;44.800;10.326;2022-10-22T08:25:33;38.03;;;20.35;;
32347;SDS011;18821;44.800;10.326;2022-10-22T08:27:59;51.25;;;29.02;;
32347;SDS011;18821;44.800;10.326;2022-10-22T08:30:25;40.13;;;24.85;;
32347;SDS011;18821;44.800;10.326;2022-10-22T08:32:54;52.55;;;29.70;;
32347;SDS011;18821;44.800;10.326;2022-10-22T08:35:20;51.78;;;29.58;;
32347;SDS011;18821;44.800;10.326;2022-10-22T08:37:46;52.25;;;30.55;;
32347;SDS011;18821;44.800;10.326;2022-10-22T08:40:24;46.67;;;27.55;;
32347;SDS011;18821;44.800;10.326;2022-10-22T08:51:20;44.60;;;25.52;;
32347;SDS011;18821;44.800;10.326;2022-10-22T08:57:03;48.28;;;27.95;;
32347;SDS011;18821;44.800;10.326;2022-10-22T08:59:36;46.05;;;26.90;;
32347;SDS011;18821;44.800;10.326;2022-10-22T09:02:26;47.28;;;28.05;;
32347;SDS011;18821;44.800;10.326;2022-10-22T09:07:43;38.50;;;25.92;;
32347;SDS011;18821;44.800;10.326;2022-10-22T09:10:14;41.33;;;24.63;;
32347;SDS011;18821;44.800;10.326;2022-10-22T09:12:43;47.05;;;25.27;;
32347;SDS011;18821;44.800;10.326;2022-10-22T09:15:13;48.47;;;28.55;;
32347;SDS011;18821;44.800;10.326;2022-10-22T09:20:33;45.75;;;26.33;;
32347;SDS011;18821;44.800;10.326;2022-10-22T09:26:08;40.90;;;26.55;;
32347;SDS011;18821;44.800;10.326;2022-10-22T09:28:38;37.70;;;24.48;;
32347;SDS011;18821;44.800;10.326;2022-10-22T09:31:09;35.13;;;20.58;;
32347;SDS011;18821;44.800;10.326;2022-10-22T09:33:40;44.88;;;27.52;;
32347;SDS011;18821;44.800;10.326;2022-10-22T09:36:07;42.95;;;24.75;;
32347;SDS011;18821;44.800;10.326;2022-10-22T09:38:41;40.05;;;22.65;;
32347;SDS011;18821;44.800;10.326;2022-10-22T09:41:10;43.88;;;23.25;;
32347;SDS011;18821;44.800;10.326;2022-10-22T09:43:37;36.15;;;22.73;;
32347;SDS011;18821;44.800;10.326;2022-10-22T09:46:04;48.72;;;24.88;;
32347;SDS011;18821;44.800;10.326;2022-10-22T09:48:33;38.75;;;23.40;;
32347;SDS011;18821;44.800;10.326;2022-10-22T09:53:47;43.67;;;24.45;;
32347;SDS011;18821;44.800;10.326;2022-10-22T09:56:25;42.35;;;23.85;;
32347;SDS011;18821;44.800;10.326;2022-10-22T09:58:55;39.25;;;21.38;;
32347;SDS011;18821;44.800;10.326;2022-10-22T10:01:25;41.83;;;21.95;;
32347;SDS011;18821;44.800;10.326;2022-10-22T10:03:53;38.67;;;24.02;;
32347;SDS011;18821;44.800;10.326;2022-10-22T10:06:26;36.28;;;23.30;;
32347;SDS011;18821;44.800;10.326;2022-10-22T10:08:57;36.90;;;22.80;;
32347;SDS011;18821;44.800;10.326;2022-10-22T10:11:28;38.97;;;23.40;;
32347;SDS011;18821;44.800;10.326;2022-10-22T10:14:07;36.45;;;22.67;;
32347;SDS011;18821;44.800;10.326;2022-10-22T10:24:21;32.63;;;18.77;;
32347;SDS011;18821;44.800;10.326;2022-10-22T10:27:04;34.80;;;23.00;;
32347;SDS011;18821;44.800;10.326;2022-10-22T10:35:02;37.17;;;21.33;;
32347;SDS011;18821;44.800;10.326;2022-10-22T10:43:03;35.75;;;20.30;;
32347;SDS011;18821;44.800;10.326;2022-10-22T10:45:54;33.40;;;19.23;;
32347;SDS011;18821;44.800;10.326;2022-10-22T10:59:17;35.90;;;19.63;;
32347;SDS011;18821;44.800;10.326;2022-10-22T11:07:18;37.53;;;19.83;;
32347;SDS011;18821;44.800;10.326;2022-10-22T11:09:55;36.28;;;20.27;;
32347;SDS011;18821;44.800;10.326;2022-10-22T11:12:28;43.10;;;21.67;;
32347;SDS011;18821;44.800;10.326;2022-10-22T11:18:00;34.25;;;20.40;;
32347;SDS011;18821;44.800;10.326;2022-10-22T11:20:54;33.40;;;18.88;;
32347;SDS011;18821;44.800;10.326;2022-10-22T11:23:32;36.80;;;19.60;;
32347;SDS011;18821;44.800;10.326;2022-10-22T11:26:05;39.35;;;19.15;;
32347;SDS011;18821;44.800;10.326;2022-10-22T11:28:43;29.85;;;16.63;;
32347;SDS011;18821;44.800;10.326;2022-10-22T11:31:14;34.13;;;17.07;;
32347;SDS011;18821;44.800;10.326;2022-10-22T11:33:53;32.55;;;18.92;;
32347;SDS011;18821;44.800;10.326;2022-10-22T11:36:28;34.13;;;19.88;;
32347;SDS011;18821;44.800;10.326;2022-10-22T11:38:56;32.70;;;18.95;;
32347;SDS011;18821;44.800;10.326;2022-10-22T11:41:22;32.95;;;19.25;;
32347;SDS011;18821;44.800;10.326;2022-10-22T11:43:55;41.88;;;19.95;;
32347;SDS011;18821;44.800;10.326;2022-10-22T11:51:40;36.80;;;18.90;;
32347;SDS011;18821;44.800;10.326;2022-10-22T11:59:43;38.40;;;21.90;;
32347;SDS011;18821;44.800;10.326;2022-10-22T12:05:16;33.05;;;18.33;;
32347;SDS011;18821;44.800;10.326;2022-10-22T12:07:54;43.25;;;20.52;;
32347;SDS011;18821;44.800;10.326;2022-10-22T12:10:29;32.10;;;18.27;;
32347;SDS011;18821;44.800;10.326;2022-10-22T12:13:09;41.58;;;20.33;;
32347;SDS011;18821;44.800;10.326;2022-10-22T12:15:50;40.03;;;19.33;;
32347;SDS011;18821;44.800;10.326;2022-10-22T12:18:19;42.15;;;20.50;;
32347;SDS011;18821;44.800;10.326;2022-10-22T12:20:51;35.42;;;19.23;;
32347;SDS011;18821;44.800;10.326;2022-10-22T12:23:18;34.03;;;18.70;;
32347;SDS011;18821;44.800;10.326;2022-10-22T12:25:48;40.75;;;18.08;;
32347;SDS011;18821;44.800;10.326;2022-10-22T12:28:14;35.85;;;18.45;;
32347;SDS011;18821;44.800;10.326;2022-10-22T12:30:40;35.13;;;18.23;;
32347;SDS011;18821;44.800;10.326;2022-10-22T12:33:07;26.60;;;14.65;;
32347;SDS011;18821;44.800;10.326;2022-10-22T12:35:44;40.03;;;18.63;;
32347;SDS011;18821;44.800;10.326;2022-10-22T12:38:15;38.50;;;18.52;;
32347;SDS011;18821;44.800;10.326;2022-10-22T12:43:13;40.72;;;19.50;;
32347;SDS011;18821;44.800;10.326;2022-10-22T12:45:42;28.00;;;17.27;;
32347;SDS011;18821;44.800;10.326;2022-10-22T12:48:20;34.08;;;18.10;;
32347;SDS011;18821;44.800;10.326;2022-10-22T12:50:52;34.55;;;18.77;;
32347;SDS011;18821;44.800;10.326;2022-10-22T12:53:26;33.65;;;19.40;;
32347;SDS011;18821;44.800;10.326;2022-10-22T12:55:53;40.55;;;21.20;;
32347;SDS011;18821;44.800;10.326;2022-10-22T12:58:21;31.92;;;18.30;;
32347;SDS011;18821;44.800;10.326;2022-10-22T13:00:55;37.58;;;18.63;;
32347;SDS011;18821;44.800;10.326;2022-10-22T13:05:53;34.63;;;19.08;;
32347;SDS011;18821;44.800;10.326;2022-10-22T13:08:22;33.22;;;19.75;;
32347;SDS011;18821;44.800;10.326;2022-10-22T13:10:53;40.42;;;20.08;;
32347;SDS011;18821;44.800;10.326;2022-10-22T13:13:36;46.50;;;20.95;;
32347;SDS011;18821;44.800;10.326;2022-10-22T13:16:23;41.30;;;20.45;;
32347;SDS011;18821;44.800;10.326;2022-10-22T13:18:52;39.40;;;19.80;;
32347;SDS011;18821;44.800;10.326;2022-10-22T13:21:25;46.60;;;22.20;;
32347;SDS011;18821;44.800;10.326;2022-10-22T13:26:51;38.38;;;20.20;;
32347;SDS011;18821;44.800;10.326;2022-10-22T13:29:20;39.78;;;21.58;;
32347;SDS011;18821;44.800;10.326;2022-10-22T13:31:51;43.05;;;21.73;;
32347;SDS011;18821;44.800;10.326;2022-10-22T13:34:18;36.65;;;21.98;;
32347;SDS011;18821;44.800;10.326;2022-10-22T13:36:47;44.85;;;22.38;;
32347;SDS011;18821;44.800;10.326;2022-10-22T13:39:20;39.70;;;21.17;;
32347;SDS011;18821;44.800;10.326;2022-10-22T13:41:48;33.55;;;20.10;;
32347;SDS011;18821;44.800;10.326;2022-10-22T13:44:15;39.05;;;20.83;;
32347;SDS011;18821;44.800;10.326;2022-10-22T13:46:41;38.08;;;21.38;;
32347;SDS011;18821;44.800;10.326;2022-10-22T13:49:15;42.38;;;22.55;;
32347;SDS011;18821;44.800;10.326;2022-10-22T13:51:47;37.47;;;21.35;;
32347;SDS011;18821;44.800;10.326;2022-10-22T13:54:17;38.85;;;22.42;;
32347;SDS011;18821;44.800;10.326;2022-10-22T13:56:49;38.55;;;21.73;;
32347;SDS011;18821;44.800;10.326;2022-10-22T13:59:16;41.15;;;21.42;;
32347;SDS011;18821;44.800;10.326;2022-10-22T14:04:35;38.35;;;22.45;;
32347;SDS011;18821;44.800;10.326;2022-10-22T14:07:08;48.00;;;22.98;;
32347;SDS011;18821;44.800;10.326;2022-10-22T14:09:41;40.33;;;22.10;;
32347;SDS011;18821;44.800;10.326;2022-10-22T14:12:14;50.97;;;22.83;;
32347;SDS011;18821;44.800;10.326;2022-10-22T14:14:41;38.67;;;22.45;;
32347;SDS011;18821;44.800;10.326;2022-10-22T14:17:10;39.75;;;22.38;;
32347;SDS011;18821;44.800;10.326;2022-10-22T14:19:44;38.72;;;22.42;;
32347;SDS011;18821;44.800;10.326;2022-10-22T14:22:13;35.08;;;22.02;;
32347;SDS011;18821;44.800;10.326;2022-10-22T14:24:42;37.58;;;21.05;;
32347;SDS011;18821;44.800;10.326;2022-10-22T14:27:11;37.75;;;22.40;;
32347;SDS011;18821;44.800;10.326;2022-10-22T14:29:38;35.97;;;23.13;;
32347;SDS011;18821;44.800;10.326;2022-10-22T14:32:23;43.58;;;24.38;;
32347;SDS011;18821;44.800;10.326;2022-10-22T14:34:52;38.88;;;22.27;;
32347;SDS011;18821;44.800;10.326;2022-10-22T14:37:18;43.80;;;22.85;;
32347;SDS011;18821;44.800;10.326;2022-10-22T14:39:45;35.92;;;21.58;;
32347;SDS011;18821;44.800;10.326;2022-10-22T14:42:16;36.00;;;21.05;;
32347;SDS011;18821;44.800;10.326;2022-10-22T14:44:43;37.10;;;22.05;;
32347;SDS011;18821;44.800;10.326;2022-10-22T14:47:10;37.83;;;21.48;;
32347;SDS011;18821;44.800;10.326;2022-10-22T14:49:37;37.67;;;20.67;;
32347;SDS011;18821;44.800;10.326;2022-10-22T14:52:03;45.13;;;22.50;;
32347;SDS011;18821;44.800;10.326;2022-10-22T14:54:29;44.15;;;23.73;;
32347;SDS011;18821;44.800;10.326;2022-10-22T14:56:55;41.10;;;22.10;;
32347;SDS011;18821;44.800;10.326;2022-10-22T14:59:21;37.05;;;22.65;;
32347;SDS011;18821;44.800;10.326;2022-10-22T15:01:47;35.25;;;20.63;;
32347;SDS011;18821;44.800;10.326;2022-10-22T15:04:12;36.88;;;20.25;;
32347;SDS011;18821;44.800;10.326;2022-10-22T15:06:38;39.70;;;23.05;;
32347;SDS011;18821;44.800;10.326;2022-10-22T15:09:04;43.45;;;22.13;;
32347;SDS011;18821;44.800;10.326;2022-10-22T15:11:30;39.38;;;21.52;;
32347;SDS011;18821;44.800;10.326;2022-10-22T15:13:56;40.63;;;21.30;;
32347;SDS011;18821;44.800;10.326;2022-10-22T15:16:22;41.95;;;22.42;;
32347;SDS011;18821;44.800;10.326;2022-10-22T15:18:48;37.83;;;20.00;;
32347;SDS011;18821;44.800;10.326;2022-10-22T15:21:14;34.35;;;18.20;;
32347;SDS011;18821;44.800;10.326;2022-10-22T15:23:42;25.00;;;14.27;;
32347;SDS011;18821;44.800;10.326;2022-10-22T15:26:09;32.05;;;15.05;;
32347;SDS011;18821;44.800;10.326;2022-10-22T15:28:36;34.13;;;14.73;;
32347;SDS011;18821;44.800;10.326;2022-10-22T15:31:03;23.33;;;13.45;;
32347;SDS011;18821;44.800;10.326;2022-10-22T15:33:30;27.50;;;13.88;;
32347;SDS011;18821;44.800;10.326;2022-10-22T15:35:56;25.08;;;14.07;;
32347;SDS011;18821;44.800;10.326;2022-10-22T15:38:26;20.15;;;10.77;;
32347;SDS011;18821;44.800;10.326;2022-10-22T15:41:02;23.80;;;11.45;;
32347;SDS011;18821;44.800;10.326;2022-10-22T15:43:30;23.90;;;10.75;;
32347;SDS011;18821;44.800;10.326;2022-10-22T15:48:39;31.48;;;12.27;;
32347;SDS011;18821;44.800;10.326;2022-10-22T15:51:16;28.25;;;12.05;;
32347;SDS011;18821;44.800;10.326;2022-10-22T15:53:43;28.17;;;12.43;;
32347;SDS011;18821;44.800;10.326;2022-10-22T15:56:19;19.52;;;11.48;;
32347;SDS011;18821;44.800;10.326;2022-10-22T15:58:46;25.33;;;12.52;;
32347;SDS011;18821;44.800;10.326;2022-10-22T16:01:16;28.80;;;12.43;;
32347;SDS011;18821;44.800;10.326;2022-10-22T16:03:42;28.00;;;12.27;;
32347;SDS011;18821;44.800;10.326;2022-10-22T16:06:08;21.00;;;11.43;;
32347;SDS011;18821;44.800;10.326;2022-10-22T16:08:35;25.48;;;11.48;;
32347;SDS011;18821;44.800;10.326;2022-10-22T16:11:02;19.20;;;11.88;;
32347;SDS011;18821;44.800;10.326;2022-10-22T16:13:28;27.02;;;13.07;;